Time;durP1;ratioP1;P1;durP2;ratioP2;P2;SDS_P1;SDS_P2;PMS_P1;PMS_P2;Temp;Humidity;BMP_temperature;BMP_pressure;BME280_temperature;BME280_humidity;BME280_pressure;Samples;Min_cycle;Max_cycle;Signal;HPM_P1;HPM_P2
2022/03/04 00:00:56;;;;;;;18.67;12.40;;;;;;;2.79;46.96;95357.75;4366044;32;20195;-59
2022/03/04 00:03:21;;;;;;;16.63;12.67;;;;;;;2.90;47.05;95356.84;4362304;32;20305;-59
2022/03/04 00:05:46;;;;;;;17.00;12.83;;;;;;;3.08;46.96;95359.16;4368448;32;20208;-59
2022/03/04 00:08:12;;;;;;;17.73;12.67;;;;;;;2.91;47.19;95358.44;4364850;32;20192;-59
2022/03/04 00:10:38;;;;;;;17.80;11.90;;;;;;;2.75;47.71;95360.84;4375597;32;20257;-59
2022/03/04 00:13:03;;;;;;;18.25;12.85;;;;;;;2.69;47.97;95363.66;4366514;32;20230;-59
2022/03/04 00:15:30;;;;;;;20.20;13.20;;;;;;;2.85;47.75;95364.63;4356466;32;20228;-59
2022/03/04 00:17:55;;;;;;;16.73;12.52;;;;;;;3.00;47.73;95362.19;4376606;32;20180;-59
2022/03/04 00:20:21;;;;;;;18.07;12.87;;;;;;;2.85;47.81;95364.63;4369317;32;20299;-59
2022/03/04 00:22:47;;;;;;;15.80;12.73;;;;;;;2.93;47.56;95366.81;4379923;32;20282;-59
2022/03/04 00:25:13;;;;;;;15.23;12.80;;;;;;;2.91;47.91;95368.91;4376243;32;20241;-59
2022/03/04 00:27:39;;;;;;;17.03;13.07;;;;;;;2.79;48.08;95369.00;4375187;32;20206;-59
2022/03/04 00:30:06;;;;;;;16.60;12.02;;;;;;;2.82;48.17;95372.97;4389262;32;20185;-59
2022/03/04 00:32:31;;;;;;;16.65;12.52;;;;;;;2.74;48.36;95371.56;4360948;32;20189;-59
2022/03/04 00:34:56;;;;;;;17.60;13.20;;;;;;;2.81;48.47;95371.38;4375116;32;20200;-60
2022/03/04 00:37:22;;;;;;;16.33;12.30;;;;;;;2.90;48.41;95369.94;4369099;32;20189;-59
2022/03/04 00:39:47;;;;;;;14.43;11.93;;;;;;;2.86;48.53;95376.69;4355877;32;20226;-59
2022/03/04 00:42:12;;;;;;;15.87;12.70;;;;;;;2.91;48.38;95374.16;4363938;32;20211;-59
2022/03/04 00:44:38;;;;;;;18.63;13.03;;;;;;;2.90;48.50;95378.59;4367928;32;20182;-59
2022/03/04 00:47:05;;;;;;;16.63;13.10;;;;;;;2.60;49.25;95378.97;4382667;32;20189;-59
2022/03/04 00:49:30;;;;;;;14.82;11.98;;;;;;;2.78;49.02;95384.97;4387179;32;20249;-59
2022/03/04 00:51:56;;;;;;;19.97;13.87;;;;;;;2.83;49.00;95379.78;4377608;32;20192;-59
2022/03/04 00:54:22;;;;;;;17.77;13.17;;;;;;;2.86;49.08;95374.06;4375955;32;20219;-59
2022/03/04 00:56:48;;;;;;;18.42;12.75;;;;;;;2.81;49.13;95374.00;4364573;32;20184;-59
2022/03/04 00:59:14;;;;;;;17.63;13.03;;;;;;;2.72;49.02;95371.78;4373365;32;20223;-59
2022/03/04 01:01:39;;;;;;;14.57;12.15;;;;;;;2.62;49.32;95374.28;4358173;32;20229;-59
2022/03/04 01:04:04;;;;;;;25.90;12.47;;;;;;;2.67;49.41;95374.37;4362392;32;20184;-59
2022/03/04 01:06:30;;;;;;;20.47;13.63;;;;;;;2.67;49.29;95363.91;4378614;32;20230;-59
2022/03/04 01:08:55;;;;;;;18.90;13.50;;;;;;;2.75;49.35;95366.06;4379703;32;20236;-59
2022/03/04 01:11:20;;;;;;;18.70;13.50;;;;;;;2.66;49.67;95367.53;4364531;32;20251;-59
2022/03/04 01:13:46;;;;;;;18.37;13.17;;;;;;;2.60;49.75;95368.50;4373178;32;20271;-59
2022/03/04 01:16:11;;;;;;;17.33;13.47;;;;;;;2.79;49.09;95370.84;4375214;32;20204;-59
2022/03/04 01:18:36;;;;;;;20.53;14.30;;;;;;;2.62;49.37;95363.81;4371940;32;20212;-59
2022/03/04 01:21:05;;;;;;;17.47;12.90;;;;;;;2.62;49.54;95360.41;4370103;32;20240;-59
2022/03/04 01:23:30;;;;;;;19.65;12.40;;;;;;;2.60;49.58;95357.25;4375248;32;20252;-59
2022/03/04 01:25:56;;;;;;;17.40;13.40;;;;;;;2.63;49.52;95360.16;4379722;32;20261;-59
2022/03/04 01:28:22;;;;;;;15.90;12.15;;;;;;;2.59;49.90;95353.03;4377748;32;20189;-59
2022/03/04 01:30:48;;;;;;;17.43;12.77;;;;;;;2.48;50.07;95352.13;4350379;32;20197;-59
2022/03/04 01:33:13;;;;;;;17.27;13.67;;;;;;;2.66;49.54;95345.81;4364193;32;20184;-59
2022/03/04 01:35:39;;;;;;;21.90;13.47;;;;;;;2.42;49.55;95356.50;4355096;32;20283;-59
2022/03/04 01:38:05;;;;;;;19.13;13.83;;;;;;;2.32;50.16;95360.78;4355094;32;20196;-59
2022/03/04 01:40:31;;;;;;;16.10;12.60;;;;;;;2.23;50.51;95357.00;4377332;32;20261;-59
2022/03/04 01:42:56;;;;;;;15.90;13.10;;;;;;;2.20;50.71;95353.03;4374543;32;20204;-59
2022/03/04 01:45:22;;;;;;;23.13;13.27;;;;;;;2.30;50.38;95354.97;4368689;32;20185;-59
2022/03/04 01:47:48;;;;;;;18.23;12.40;;;;;;;2.21;50.49;95359.06;4353313;32;20208;-59
2022/03/04 01:50:14;;;;;;;19.55;13.27;;;;;;;2.21;50.62;95348.59;4387515;32;20189;-59
2022/03/04 01:52:40;;;;;;;21.50;14.23;;;;;;;2.37;50.33;95348.56;4378141;32;20224;-59
2022/03/04 01:55:08;;;;;;;16.80;13.00;;;;;;;2.26;50.40;95346.06;4374113;32;20197;-59
2022/03/04 01:57:34;;;;;;;20.70;14.38;;;;;;;2.19;50.02;95346.22;4370603;32;20211;-59
2022/03/04 02:00:00;;;;;;;20.15;13.45;;;;;;;2.25;50.06;95331.38;4388823;32;20236;-59
2022/03/04 02:02:25;;;;;;;18.35;12.50;;;;;;;2.30;49.91;95341.91;4379286;32;20188;-59
2022/03/04 02:04:51;;;;;;;19.60;13.00;;;;;;;2.15;50.54;95333.84;4376524;32;20204;-59
2022/03/04 02:07:17;;;;;;;15.63;11.70;;;;;;;2.30;50.18;95336.66;4373347;32;20327;-59
2022/03/04 02:09:42;;;;;;;21.57;13.10;;;;;;;1.99;50.57;95336.25;4368385;32;20185;-59
2022/03/04 02:12:08;;;;;;;18.20;13.47;;;;;;;2.36;50.34;95339.13;4376939;32;20206;-59
2022/03/04 02:14:34;;;;;;;17.77;12.68;;;;;;;2.41;50.10;95339.19;4366754;32;20235;-59
2022/03/04 02:16:59;;;;;;;17.93;12.83;;;;;;;2.42;49.71;95342.59;4377792;32;20220;-59
2022/03/04 02:19:24;;;;;;;17.30;13.27;;;;;;;2.70;49.28;95336.44;4378388;32;20184;-59
2022/03/04 02:21:55;;;;;;;17.10;12.13;;;;;;;2.67;49.12;95327.22;4376457;32;20185;-59
2022/03/04 02:24:22;;;;;;;16.92;12.55;;;;;;;2.51;49.09;95338.53;4358441;32;20205;-59
2022/03/04 02:26:48;;;;;;;16.60;12.27;;;;;;;2.56;49.26;95330.75;4360072;32;20184;-59
2022/03/04 02:29:14;;;;;;;19.15;12.95;;;;;;;2.51;49.25;95333.28;4362753;32;20181;-59
2022/03/04 02:31:40;;;;;;;17.50;12.87;;;;;;;2.64;49.36;95327.72;4373381;32;20285;-59
2022/03/04 02:34:05;;;;;;;14.73;12.73;;;;;;;2.64;49.22;95334.78;4376125;32;20239;-60
2022/03/04 02:36:31;;;;;;;19.97;12.80;;;;;;;2.79;48.74;95328.94;4372671;32;20200;-59
2022/03/04 02:38:56;;;;;;;17.23;12.77;;;;;;;2.67;48.89;95327.22;4375351;32;20204;-59
2022/03/04 02:41:21;;;;;;;19.80;12.90;;;;;;;2.57;49.54;95324.47;4361525;32;20234;-59
2022/03/04 02:43:47;;;;;;;16.27;12.30;;;;;;;2.75;48.37;95323.38;4374472;32;20275;-59
2022/03/04 02:46:13;;;;;;;17.20;12.67;;;;;;;2.56;48.76;95316.84;4362779;32;20240;-59
2022/03/04 02:48:39;;;;;;;15.57;11.93;;;;;;;2.39;49.11;95315.09;4372079;32;20300;-59
2022/03/04 02:51:04;;;;;;;17.40;12.90;;;;;;;2.61;48.76;95306.47;4373339;32;20189;-59
2022/03/04 02:53:30;;;;;;;16.03;12.50;;;;;;;2.54;49.22;95309.25;4364330;32;20238;-59
2022/03/04 02:55:55;;;;;;;17.63;12.10;;;;;;;2.69;48.66;95309.44;4378015;32;20185;-59
2022/03/04 02:58:21;;;;;;;16.57;12.53;;;;;;;2.75;48.56;95305.84;4375845;32;20181;-59
2022/03/04 03:00:46;;;;;;;15.63;13.23;;;;;;;2.56;48.77;95307.19;4368021;32;20284;-59
2022/03/04 03:03:14;;;;;;;17.83;12.50;;;;;;;2.60;48.93;95302.25;4382441;32;20219;-59
2022/03/04 03:05:39;;;;;;;17.80;12.00;;;;;;;2.69;48.87;95304.22;4367187;32;20189;-59
2022/03/04 03:08:05;;;;;;;17.23;12.33;;;;;;;2.62;48.59;95308.84;4388129;32;20184;-59
2022/03/04 03:10:32;;;;;;;17.63;13.03;;;;;;;2.64;48.68;95306.78;4362654;32;20229;-59
2022/03/04 03:12:58;;;;;;;16.30;12.37;;;;;;;2.65;48.54;95302.31;4356561;32;20177;-59
2022/03/04 03:15:24;;;;;;;20.23;13.43;;;;;;;2.70;48.72;95299.78;4375315;32;20185;-59
2022/03/04 03:17:49;;;;;;;14.40;12.47;;;;;;;2.66;49.18;95319.63;4367336;32;20280;-59
2022/03/04 03:20:16;;;;;;;16.03;13.20;;;;;;;2.65;48.98;95312.78;4369297;32;20207;-59
2022/03/04 03:22:41;;;;;;;18.60;12.80;;;;;;;2.58;49.31;95310.34;4372871;32;20196;-58
2022/03/04 03:25:07;;;;;;;16.63;12.93;;;;;;;2.70;48.97;95305.78;4358041;32;20181;-59
2022/03/04 03:27:32;;;;;;;17.50;13.30;;;;;;;2.44;49.45;95306.50;4369435;32;20164;-59
2022/03/04 03:29:58;;;;;;;19.77;12.97;;;;;;;2.29;49.90;95308.91;4373969;32;20211;-59
2022/03/04 03:32:23;;;;;;;16.70;13.07;;;;;;;2.45;49.54;95304.69;4377172;32;20199;-59
2022/03/04 03:34:48;;;;;;;18.27;12.97;;;;;;;2.24;50.18;95327.19;4362304;32;20180;-59
2022/03/04 03:37:14;;;;;;;14.90;11.93;;;;;;;2.25;50.30;95324.31;4368454;32;20178;-59
2022/03/04 03:39:39;;;;;;;17.13;13.27;;;;;;;2.30;50.24;95326.19;4357052;32;20221;-59
2022/03/04 03:42:06;;;;;;;19.73;13.13;;;;;;;2.16;50.76;95325.75;4375913;32;20252;-59
2022/03/04 03:44:31;;;;;;;19.02;13.20;;;;;;;1.94;51.09;95338.78;4362252;32;20180;-59
2022/03/04 03:46:57;;;;;;;20.10;13.87;;;;;;;2.25;50.39;95334.00;4359110;32;20240;-59
2022/03/04 03:49:22;;;;;;;15.57;12.47;;;;;;;2.08;51.00;95332.16;4372056;32;20247;-59
2022/03/04 03:51:48;;;;;;;17.10;12.37;;;;;;;2.07;51.17;95329.81;4361399;32;20198;-58
2022/03/04 03:54:14;;;;;;;17.48;13.48;;;;;;;2.19;51.29;95329.72;4366021;32;20177;-59
2022/03/04 03:56:39;;;;;;;16.27;13.00;;;;;;;1.96;51.88;95325.47;4368180;32;20184;-59
2022/03/04 03:59:05;;;;;;;17.57;12.87;;;;;;;1.99;51.69;95325.78;4368945;32;20189;-59
2022/03/04 04:01:30;;;;;;;17.30;13.27;;;;;;;2.22;51.02;95330.03;4361107;32;20232;-58
2022/03/04 04:03:55;;;;;;;18.13;12.73;;;;;;;2.15;50.89;95339.06;4368117;32;20255;-59
2022/03/04 04:06:21;;;;;;;18.77;13.60;;;;;;;2.31;50.57;95338.25;4375719;32;20234;-59
2022/03/04 04:08:46;;;;;;;16.60;13.07;;;;;;;2.27;50.72;95334.56;4360954;32;20215;-59
2022/03/04 04:11:13;;;;;;;20.97;14.30;;;;;;;2.15;50.84;95341.69;4360537;32;20354;-59
2022/03/04 04:13:38;;;;;;;16.25;13.13;;;;;;;1.98;51.40;95344.31;4368490;32;20211;-59
2022/03/04 04:16:04;;;;;;;20.60;13.37;;;;;;;2.05;51.17;95337.91;4373573;32;20203;-59
2022/03/04 04:18:29;;;;;;;23.33;14.43;;;;;;;2.14;51.04;95337.50;4352707;32;20196;-59
2022/03/04 04:20:55;;;;;;;17.10;13.33;;;;;;;2.01;51.14;95343.84;4363899;32;20177;-59
2022/03/04 04:23:20;;;;;;;21.57;13.70;;;;;;;2.03;51.15;95347.81;4375498;32;20181;-59
2022/03/04 04:25:45;;;;;;;18.73;13.10;;;;;;;2.05;51.12;95345.75;4354106;32;20180;-58
2022/03/04 04:28:11;;;;;;;20.13;13.83;;;;;;;1.95;51.33;95350.03;4367440;32;20181;-59
2022/03/04 04:30:36;;;;;;;16.80;12.90;;;;;;;1.98;51.42;95355.59;4373173;32;20212;-59
2022/03/04 04:33:01;;;;;;;16.60;12.53;;;;;;;1.76;52.41;95352.09;4355271;32;20228;-59
2022/03/04 04:35:27;;;;;;;17.20;12.73;;;;;;;2.05;51.58;95358.03;4364451;32;20210;-59
2022/03/04 04:37:52;;;;;;;16.27;13.10;;;;;;;1.88;51.91;95355.41;4386865;32;20185;-59
2022/03/04 04:40:18;;;;;;;22.80;12.70;;;;;;;2.01;51.40;95351.69;4379108;32;20276;-59
2022/03/04 04:42:44;;;;;;;17.17;13.38;;;;;;;2.16;51.19;95354.53;4364573;32;20234;-59
2022/03/04 04:45:09;;;;;;;19.83;13.03;;;;;;;2.15;51.23;95358.19;4363967;32;20184;-59
2022/03/04 04:47:34;;;;;;;16.40;12.77;;;;;;;1.93;51.83;95357.31;4377432;32;20239;-59
2022/03/04 04:50:00;;;;;;;17.00;12.53;;;;;;;1.74;52.19;95364.59;4367824;32;20258;-59
2022/03/04 04:52:25;;;;;;;18.83;12.40;;;;;;;1.47;53.41;95368.84;4378160;32;20185;-59
2022/03/04 04:54:51;;;;;;;15.77;12.63;;;;;;;1.50;53.46;95376.22;4366840;32;20212;-59
2022/03/04 04:57:16;;;;;;;17.33;13.00;;;;;;;1.40;53.85;95368.19;4377450;32;20184;-59
2022/03/04 04:59:42;;;;;;;15.77;12.50;;;;;;;1.48;54.00;95375.66;4377847;32;20188;-59
2022/03/04 05:02:07;;;;;;;16.87;12.93;;;;;;;1.42;53.76;95376.59;4370751;32;20226;-59
2022/03/04 05:04:32;;;;;;;19.13;13.57;;;;;;;1.90;52.67;95376.09;4377460;32;20177;-59
2022/03/04 05:06:58;;;;;;;21.40;13.83;;;;;;;1.98;52.31;95375.72;4377832;32;20231;-61
2022/03/04 05:09:23;;;;;;;15.77;12.17;;;;;;;1.92;52.32;95371.41;4386341;32;20228;-59
2022/03/04 05:11:48;;;;;;;16.77;12.80;;;;;;;2.03;52.11;95367.94;4371495;32;20197;-59
2022/03/04 05:14:14;;;;;;;18.27;13.43;;;;;;;2.01;52.29;95372.63;4381020;32;20196;-59
2022/03/04 05:16:39;;;;;;;16.60;12.80;;;;;;;1.98;52.29;95371.28;4378860;32;20237;-59
2022/03/04 05:19:05;;;;;;;18.77;13.80;;;;;;;2.00;52.26;95373.66;4384885;32;20192;-59
2022/03/04 05:21:30;;;;;;;18.47;12.60;;;;;;;1.94;52.48;95367.53;4352065;32;20244;-59
2022/03/04 05:24:02;;;;;;;17.17;12.43;;;;;;;2.05;52.08;95374.53;4367757;32;20220;-58
2022/03/04 05:26:33;;;;;;;18.00;13.50;;;;;;;2.01;52.41;95381.25;4363847;32;20197;-59
2022/03/04 05:29:00;;;;;;;18.20;13.52;;;;;;;1.94;52.73;95380.63;4360306;32;20189;-60
2022/03/04 05:31:27;;;;;;;17.45;12.63;;;;;;;1.89;52.84;95387.59;4372332;32;20184;-58
2022/03/04 05:33:52;;;;;;;20.12;12.93;;;;;;;1.72;53.55;95382.34;4379622;32;20197;-59
2022/03/04 05:36:19;;;;;;;17.90;13.47;;;;;;;1.81;53.30;95386.16;4360496;32;20257;-58
2022/03/04 05:38:45;;;;;;;17.23;12.45;;;;;;;1.86;53.23;95396.72;4360380;32;20234;-59
2022/03/04 05:41:12;;;;;;;19.40;12.83;;;;;;;1.85;53.23;95391.72;4369555;32;20225;-59
2022/03/04 05:43:38;;;;;;;19.42;13.27;;;;;;;1.80;53.08;95389.81;4374625;32;20192;-59
2022/03/04 05:46:06;;;;;;;19.10;14.80;;;;;;;1.82;52.95;95393.00;4349585;32;20181;-59
2022/03/04 05:48:32;;;;;;;19.50;13.75;;;;;;;1.82;52.90;95403.44;4364745;32;20203;-59
2022/03/04 05:50:57;;;;;;;17.90;12.67;;;;;;;1.62;53.61;95416.97;4362892;32;20224;-59
2022/03/04 05:53:23;;;;;;;19.63;13.57;;;;;;;1.56;54.08;95417.91;4374894;32;20234;-59
2022/03/04 05:55:48;;;;;;;17.87;13.17;;;;;;;1.25;54.71;95421.75;4351674;32;20272;-59
2022/03/04 05:58:13;;;;;;;17.07;12.73;;;;;;;1.32;54.88;95425.03;4376945;32;20260;-59
2022/03/04 06:00:39;;;;;;;18.23;14.13;;;;;;;1.50;54.44;95425.88;4387902;32;20187;-59
2022/03/04 06:03:04;;;;;;;17.50;13.57;;;;;;;1.44;54.51;95426.81;4369906;32;20189;-59
2022/03/04 06:05:30;;;;;;;21.97;14.17;;;;;;;1.58;53.62;95430.72;4377484;32;20220;-59
2022/03/04 06:07:55;;;;;;;20.60;13.00;;;;;;;1.47;53.85;95426.31;4392182;32;20199;-59
2022/03/04 06:10:20;;;;;;;19.93;12.87;;;;;;;1.57;53.29;95434.38;4375913;32;20188;-59
2022/03/04 06:12:46;;;;;;;19.73;14.30;;;;;;;1.33;53.54;95434.44;4377103;32;20181;-59
2022/03/04 06:15:11;;;;;;;16.13;11.97;;;;;;;1.18;53.07;95447.22;4377076;32;20234;-59
2022/03/04 06:17:37;;;;;;;21.80;12.40;;;;;;;1.19;53.25;95443.59;4375372;32;20180;-59
2022/03/04 06:20:03;;;;;;;20.43;12.67;;;;;;;1.17;53.04;95443.03;4370090;32;20289;-59
2022/03/04 06:22:28;;;;;;;18.37;13.45;;;;;;;1.03;53.06;95442.50;4365263;32;20196;-59
2022/03/04 06:24:53;;;;;;;19.13;12.90;;;;;;;0.95;53.32;95442.06;4377411;32;20188;-59
2022/03/04 06:27:19;;;;;;;20.87;13.03;;;;;;;0.97;53.52;95451.25;4350011;32;20185;-59
2022/03/04 06:29:44;;;;;;;22.27;13.17;;;;;;;1.07;53.13;95448.03;4377066;32;20193;-59
2022/03/04 06:32:09;;;;;;;21.27;12.63;;;;;;;1.32;52.48;95442.53;4372599;32;20193;-59
2022/03/04 06:34:35;;;;;;;24.10;14.00;;;;;;;1.03;53.10;95452.94;4374219;32;20224;-59
2022/03/04 06:37:00;;;;;;;19.13;13.07;;;;;;;1.35;52.58;95455.91;4355529;32;20223;-59
2022/03/04 06:39:26;;;;;;;19.10;12.43;;;;;;;1.14;52.32;95456.53;4378428;32;20185;-59
2022/03/04 06:41:51;;;;;;;18.20;13.73;;;;;;;1.21;52.39;95459.84;4382501;32;20219;-59
2022/03/04 06:44:17;;;;;;;25.60;13.17;;;;;;;1.32;51.86;95460.81;4363822;32;20177;-59
2022/03/04 06:46:42;;;;;;;19.57;13.30;;;;;;;1.42;51.85;95468.88;4387920;32;20188;-59
2022/03/04 06:49:12;;;;;;;21.93;13.50;;;;;;;1.71;51.49;95469.66;4361976;32;20214;-59
2022/03/04 06:51:38;;;;;;;17.75;12.15;;;;;;;1.56;51.70;95466.75;4375205;32;20207;-59
2022/03/04 06:54:04;;;;;;;17.23;12.70;;;;;;;1.69;51.21;95476.94;4351501;32;20192;-59
2022/03/04 06:56:29;;;;;;;18.50;12.80;;;;;;;1.51;51.29;95475.28;4383400;32;20180;-61
2022/03/04 06:58:54;;;;;;;29.00;12.53;;;;;;;1.54;51.24;95477.44;4393303;32;20212;-59
2022/03/04 07:01:21;;;;;;;20.20;13.27;;;;;;;3.15;74.07;95472.41;4368354;32;20184;-59
2022/03/04 07:03:46;;;;;;;20.00;12.70;;;;;;;3.46;61.01;95465.72;4350913;32;20208;-59
2022/03/04 07:06:12;;;;;;;20.17;13.60;;;;;;;3.67;61.15;95477.25;4374372;32;20197;-59
2022/03/04 07:08:37;;;;;;;18.13;13.00;;;;;;;3.65;57.98;95477.50;4375836;32;20215;-58
2022/03/04 07:11:05;;;;;;;21.53;13.33;;;;;;;3.85;54.83;95474.28;4370112;32;20220;-59
2022/03/04 07:13:31;;;;;;;21.63;13.53;;;;;;;4.55;58.08;95475.19;4372463;32;20262;-59
2022/03/04 07:15:56;;;;;;;20.90;13.67;;;;;;;4.62;54.13;95467.88;4363568;32;20284;-59
2022/03/04 07:18:23;;;;;;;22.17;14.00;;;;;;;4.45;53.09;95473.25;4375813;32;20233;-58
2022/03/04 07:20:49;;;;;;;18.50;13.33;;;;;;;4.59;52.06;95474.41;4366523;32;20231;-59
2022/03/04 07:23:15;;;;;;;16.73;13.93;;;;;;;4.54;53.45;95481.47;4371604;32;20351;-59
2022/03/04 07:25:41;;;;;;;14.80;12.30;;;;;;;4.70;53.97;95476.09;4375103;32;20335;-59
2022/03/04 07:28:07;;;;;;;16.50;11.87;;;;;;;5.48;60.88;95484.16;4375063;32;20288;-59
2022/03/04 07:30:32;;;;;;;18.70;12.10;;;;;;;5.57;58.24;95484.44;4375063;32;20196;-59
2022/03/04 07:32:58;;;;;;;19.37;13.43;;;;;;;5.89;56.80;95487.75;4367282;32;20207;-59
2022/03/04 07:35:24;;;;;;;17.07;13.83;;;;;;;5.58;45.50;95486.81;4367777;32;20212;-59
2022/03/04 07:37:49;;;;;;;19.03;14.43;;;;;;;5.15;43.62;95487.94;4373639;32;20352;-59
2022/03/04 07:40:15;;;;;;;22.27;14.33;;;;;;;4.38;44.26;95493.69;4364981;32;20192;-59
2022/03/04 07:42:41;;;;;;;19.47;13.73;;;;;;;3.70;45.40;95503.00;4374988;32;20239;-59
2022/03/04 07:45:08;;;;;;;20.93;14.77;;;;;;;3.30;46.58;95504.09;4359175;32;20234;-59
2022/03/04 07:47:34;;;;;;;19.53;14.00;;;;;;;3.10;46.39;95509.06;4345708;32;20277;-59
2022/03/04 07:50:00;;;;;;;18.90;13.63;;;;;;;2.95;46.89;95506.22;4365607;32;20363;-59
2022/03/04 07:52:31;;;;;;;17.93;13.03;;;;;;;2.90;47.13;95514.03;4362882;32;20284;-59
2022/03/04 07:54:57;;;;;;;19.40;13.47;;;;;;;2.69;47.61;95513.72;4363951;32;20221;-59
2022/03/04 07:57:22;;;;;;;18.07;13.77;;;;;;;2.57;48.11;95518.22;4376403;32;20293;-59
2022/03/04 07:59:48;;;;;;;17.63;13.37;;;;;;;2.57;48.25;95517.44;4359621;32;20299;-59
2022/03/04 08:02:13;;;;;;;19.13;13.57;;;;;;;2.57;48.10;95520.84;4372817;32;20180;-58
2022/03/04 08:04:38;;;;;;;17.07;13.50;;;;;;;2.85;47.27;95517.34;4385206;32;20185;-59
2022/03/04 08:07:08;;;;;;;23.97;14.43;;;;;;;2.87;47.26;95520.53;4372951;32;20227;-60
2022/03/04 08:09:36;;;;;;;23.05;14.10;;;;;;;2.92;47.19;95523.19;4354969;32;20292;-59
2022/03/04 08:12:02;;;;;;;19.77;13.40;;;;;;;3.10;46.68;95522.16;4342070;32;20221;-59
2022/03/04 08:14:29;;;;;;;17.17;12.33;;;;;;;3.11;46.26;95526.37;4361985;32;20297;-59
2022/03/04 08:16:54;;;;;;;19.02;13.73;;;;;;;2.90;45.33;95521.88;4356444;32;20315;-59
2022/03/04 08:19:23;;;;;;;19.43;13.60;;;;;;;2.62;46.70;95526.16;4351257;32;20192;-59
2022/03/04 08:21:49;;;;;;;18.95;13.50;;;;;;;2.44;46.78;95530.84;4342519;32;20188;-59
2022/03/04 08:24:17;;;;;;;16.53;13.00;;;;;;;2.79;46.52;95533.22;4373455;32;20204;-59
2022/03/04 08:26:43;;;;;;;20.05;13.18;;;;;;;2.87;45.94;95540.69;4355843;32;20281;-59
2022/03/04 08:29:14;;;;;;;18.67;13.53;;;;;;;2.89;45.65;95538.62;4334762;32;20313;-59
2022/03/04 08:31:40;;;;;;;19.23;12.75;;;;;;;2.76;45.33;95540.53;4350851;32;20252;-59
2022/03/04 08:34:07;;;;;;;17.27;12.98;;;;;;;2.67;46.03;95541.97;4360125;32;20272;-59
2022/03/04 08:36:35;;;;;;;16.40;13.05;;;;;;;2.80;46.14;95546.06;4353119;32;20192;-59
2022/03/04 08:39:03;;;;;;;25.42;15.73;;;;;;;2.86;46.41;95541.72;4354347;32;20192;-59
2022/03/04 08:41:36;;;;;;;22.43;14.20;;;;;;;2.88;46.64;95547.53;4380977;32;20211;-59
2022/03/04 08:44:03;;;;;;;17.15;12.90;;;;;;;2.86;46.42;95545.13;4364905;32;20315;-59
2022/03/04 08:46:31;;;;;;;19.30;12.93;;;;;;;2.92;46.48;95535.50;4337957;32;20189;-59
2022/03/04 08:48:57;;;;;;;20.35;13.23;;;;;;;2.99;46.47;95538.75;4352213;32;20209;-59
2022/03/04 08:51:25;;;;;;;18.50;13.25;;;;;;;3.00;46.38;95540.34;4317516;32;20347;-59
2022/03/04 08:53:52;;;;;;;20.70;12.60;;;;;;;2.97;47.33;95540.81;4344778;32;20291;-59
2022/03/04 08:56:19;;;;;;;19.95;13.62;;;;;;;3.00;46.29;95546.38;4348514;32;20193;-59
2022/03/04 08:58:50;;;;;;;22.45;13.70;;;;;;;3.19;45.77;95540.88;4348860;32;20311;-59
2022/03/04 09:01:16;;;;;;;18.40;13.80;;;;;;;3.35;45.74;95547.91;4319909;32;20227;-59
2022/03/04 09:03:44;;;;;;;19.92;12.77;;;;;;;3.47;45.00;95545.19;4374447;32;20181;-59
2022/03/04 09:06:10;;;;;;;18.23;12.07;;;;;;;3.51;44.10;95541.84;4371045;32;20181;-59
2022/03/04 09:08:41;;;;;;;17.60;13.20;;;;;;;3.53;44.12;95544.22;4358253;32;20295;-59
2022/03/04 09:11:13;;;;;;;22.15;12.93;;;;;;;3.57;44.02;95545.31;4367127;32;20350;-58
2022/03/04 09:13:41;;;;;;;17.70;12.88;;;;;;;3.61;43.50;95551.66;4376082;32;20189;-59
2022/03/04 09:16:06;;;;;;;16.70;13.10;;;;;;;3.60;43.71;95542.19;4359835;32;20288;-59
2022/03/04 09:18:31;;;;;;;23.67;15.17;;;;;;;3.56;43.43;95541.87;4353657;32;20185;-60
2022/03/04 09:20:58;;;;;;;17.30;12.33;;;;;;;3.72;43.79;95537.66;4333532;32;20256;-59
2022/03/04 09:23:27;;;;;;;16.65;13.30;;;;;;;3.91;43.13;95540.75;4314410;32;20298;-59
2022/03/04 09:25:54;;;;;;;16.57;12.53;;;;;;;3.77;43.15;95541.09;4342623;32;20257;-59
2022/03/04 09:28:20;;;;;;;20.30;13.47;;;;;;;3.84;43.06;95540.91;4344741;32;20368;-59
2022/03/04 09:30:47;;;;;;;15.57;11.93;;;;;;;3.74;43.23;95530.31;4319027;32;20356;-59
2022/03/04 09:33:14;;;;;;;16.00;12.87;;;;;;;3.91;43.39;95541.53;4355243;32;20389;-59
2022/03/04 09:35:40;;;;;;;16.53;12.70;;;;;;;4.06;43.12;95539.06;4360201;32;20281;-59
2022/03/04 09:38:07;;;;;;;15.93;12.13;;;;;;;4.16;43.19;95529.72;4376412;32;20277;-59
2022/03/04 09:40:32;;;;;;;16.77;13.43;;;;;;;4.12;43.10;95540.72;4351599;32;20269;-60
2022/03/04 09:43:00;;;;;;;16.27;13.30;;;;;;;4.48;42.82;95530.53;4334161;32;20185;-59
2022/03/04 09:45:26;;;;;;;18.27;13.63;;;;;;;4.75;42.36;95528.69;4346414;32;20192;-59
2022/03/04 09:47:53;;;;;;;17.10;13.03;;;;;;;4.61;42.14;95532.75;4362105;32;20299;-59
2022/03/04 09:50:23;;;;;;;17.77;13.03;;;;;;;4.45;42.48;95534.47;4374726;32;20277;-59
2022/03/04 09:52:51;;;;;;;16.40;13.00;;;;;;;4.43;42.57;95544.41;4361911;32;20351;-59
2022/03/04 09:55:18;;;;;;;19.73;13.57;;;;;;;4.40;43.00;95533.63;4341106;32;20282;-59
2022/03/04 09:57:46;;;;;;;16.83;12.97;;;;;;;4.43;42.70;95528.66;4328078;32;20273;-59
2022/03/04 10:00:13;;;;;;;19.00;14.33;;;;;;;4.41;43.07;95529.94;4367696;32;20273;-59
2022/03/04 10:02:41;;;;;;;24.00;14.53;;;;;;;4.57;42.75;95521.19;4359286;32;20284;-58
2022/03/04 10:05:09;;;;;;;20.97;13.23;;;;;;;4.63;43.57;95516.75;4357116;32;20295;-59
2022/03/04 10:07:46;;;;;;;16.37;12.97;;;;;;;4.75;42.32;95509.50;4347239;32;20307;-59
2022/03/04 10:10:21;;;;;;;19.13;13.60;;;;;;;4.82;42.64;95510.84;4350547;32;20300;-59
2022/03/04 10:12:57;;;;;;;22.57;13.17;;;;;;;4.81;42.03;95511.87;4366203;32;20276;-59
2022/03/04 10:15:26;;;;;;;24.87;14.57;;;;;;;5.13;42.24;95514.47;4334552;32;20390;-59
2022/03/04 10:18:00;;;;;;;18.03;13.00;;;;;;;5.19;41.03;95504.78;4324272;32;20309;-59
2022/03/04 10:20:40;;;;;;;19.43;13.40;;;;;;;5.18;41.28;95497.94;4315935;32;20282;-59
2022/03/04 10:23:20;;;;;;;17.07;12.87;;;;;;;5.46;40.57;95500.19;4335115;32;20285;-59
2022/03/04 10:25:56;;;;;;;14.73;11.57;;;;;;;5.50;39.43;95506.53;4342258;32;20289;-58
2022/03/04 10:28:24;;;;;;;16.23;12.00;;;;;;;5.47;38.83;95503.59;4370600;32;20294;-58
2022/03/04 10:30:52;;;;;;;17.13;13.30;;;;;;;5.37;39.52;95506.19;4311015;32;20308;-58
2022/03/04 10:33:23;;;;;;;19.53;12.47;;;;;;;5.22;39.04;95509.53;4327623;32;20359;-59
2022/03/04 10:36:13;;;;;;;17.67;12.53;;;;;;;5.27;39.24;95506.94;4324365;32;20390;-59
2022/03/04 10:38:43;;;;;;;17.40;14.10;;;;;;;5.28;39.16;95495.34;4337957;32;20297;-59
2022/03/04 10:41:29;;;;;;;17.83;12.47;;;;;;;5.40;39.00;95500.44;4321323;32;20322;-59
2022/03/04 10:43:56;;;;;;;19.50;14.23;;;;;;;5.57;38.99;95495.78;4326469;32;20306;-58
2022/03/04 10:46:23;;;;;;;16.60;12.90;;;;;;;5.50;38.64;95503.87;4358734;32;20285;-59
2022/03/04 10:48:57;;;;;;;17.70;13.30;;;;;;;5.48;38.40;95492.81;4364805;32;20304;-59
2022/03/04 10:51:49;;;;;;;14.97;11.90;;;;;;;5.47;38.54;95499.13;4323399;32;20273;-58
2022/03/04 10:54:17;;;;;;;20.77;12.57;;;;;;;5.62;38.27;95497.59;4343955;32;20340;-58
2022/03/04 10:56:56;;;;;;;18.90;12.13;;;;;;;5.67;38.00;95495.00;4358825;32;20301;-59
2022/03/04 10:59:24;;;;;;;20.87;13.20;;;;;;;5.54;38.66;95493.66;4362198;32;20372;-58
2022/03/04 11:01:55;;;;;;;15.40;12.13;;;;;;;5.43;39.11;95497.25;4349886;32;20285;-59
2022/03/04 11:04:21;;;;;;;17.57;12.70;;;;;;;5.62;38.71;95490.50;4362130;32;20364;-59
2022/03/04 11:06:48;;;;;;;18.00;13.57;;;;;;;5.77;38.48;95487.16;4347686;32;20303;-58
2022/03/04 11:09:16;;;;;;;19.77;14.40;;;;;;;5.83;38.52;95497.44;4342037;32;20302;-59
2022/03/04 11:11:44;;;;;;;16.37;12.83;;;;;;;5.77;38.99;95495.06;4352080;32;20336;-59
2022/03/04 11:14:15;;;;;;;18.20;14.10;;;;;;;5.70;39.15;95487.38;4337472;32;20288;-59
2022/03/04 11:16:40;;;;;;;16.30;12.57;;;;;;;5.65;39.39;95486.56;4343654;32;20350;-59
2022/03/04 11:19:10;;;;;;;17.13;13.17;;;;;;;5.64;39.21;95485.00;4364025;32;20276;-59
2022/03/04 11:21:39;;;;;;;16.37;11.87;;;;;;;5.63;39.25;95483.41;4381346;32;20192;-59